sensor_id;sensor_type;location;lat;lon;timestamp;P1;durP1;ratioP1;P2;durP2;ratioP2
61085;SDS011;46967;48.876;2.136;2023-07-20T00:02:12;3.80;;;1.30;;
61085;SDS011;46967;48.876;2.136;2023-07-20T00:04:37;4.35;;;1.23;;
61085;SDS011;46967;48.876;2.136;2023-07-20T00:07:03;5.22;;;1.60;;
61085;SDS011;46967;48.876;2.136;2023-07-20T00:09:29;4.43;;;1.50;;
61085;SDS011;46967;48.876;2.136;2023-07-20T00:11:54;3.97;;;1.45;;
61085;SDS011;46967;48.876;2.136;2023-07-20T00:14:20;6.75;;;1.50;;
61085;SDS011;46967;48.876;2.136;2023-07-20T00:16:46;4.60;;;1.55;;
61085;SDS011;46967;48.876;2.136;2023-07-20T00:19:14;4.15;;;1.20;;
61085;SDS011;46967;48.876;2.136;2023-07-20T00:24:07;3.90;;;1.38;;
61085;SDS011;46967;48.876;2.136;2023-07-20T00:26:33;5.45;;;1.42;;
61085;SDS011;46967;48.876;2.136;2023-07-20T00:28:58;3.08;;;1.38;;
61085;SDS011;46967;48.876;2.136;2023-07-20T00:31:24;3.38;;;1.48;;
61085;SDS011;46967;48.876;2.136;2023-07-20T00:33:49;5.82;;;1.42;;
61085;SDS011;46967;48.876;2.136;2023-07-20T00:36:14;4.70;;;1.50;;
61085;SDS011;46967;48.876;2.136;2023-07-20T00:38:40;4.00;;;1.70;;
61085;SDS011;46967;48.876;2.136;2023-07-20T00:41:06;3.83;;;1.38;;
61085;SDS011;46967;48.876;2.136;2023-07-20T00:43:31;3.22;;;1.35;;
61085;SDS011;46967;48.876;2.136;2023-07-20T00:45:56;4.72;;;1.40;;
61085;SDS011;46967;48.876;2.136;2023-07-20T00:48:22;5.22;;;1.65;;
61085;SDS011;46967;48.876;2.136;2023-07-20T00:50:48;4.25;;;1.70;;
61085;SDS011;46967;48.876;2.136;2023-07-20T00:53:15;3.65;;;1.42;;
61085;SDS011;46967;48.876;2.136;2023-07-20T00:55:40;3.75;;;1.60;;
61085;SDS011;46967;48.876;2.136;2023-07-20T00:58:06;5.28;;;1.58;;
61085;SDS011;46967;48.876;2.136;2023-07-20T01:00:32;4.72;;;1.50;;
61085;SDS011;46967;48.876;2.136;2023-07-20T01:02:57;4.55;;;1.58;;
61085;SDS011;46967;48.876;2.136;2023-07-20T01:05:23;3.88;;;1.60;;
61085;SDS011;46967;48.876;2.136;2023-07-20T01:08:32;2.88;;;1.48;;
61085;SDS011;46967;48.876;2.136;2023-07-20T01:11:05;6.00;;;1.40;;
61085;SDS011;46967;48.876;2.136;2023-07-20T01:13:41;3.78;;;2.08;;
61085;SDS011;46967;48.876;2.136;2023-07-20T01:16:08;4.05;;;1.45;;
61085;SDS011;46967;48.876;2.136;2023-07-20T01:18:34;6.43;;;1.67;;
61085;SDS011;46967;48.876;2.136;2023-07-20T01:21:01;3.05;;;1.83;;
61085;SDS011;46967;48.876;2.136;2023-07-20T01:31:36;8.48;;;1.63;;
61085;SDS011;46967;48.876;2.136;2023-07-20T01:34:03;5.28;;;1.67;;
61085;SDS011;46967;48.876;2.136;2023-07-20T01:36:33;3.72;;;1.48;;
61085;SDS011;46967;48.876;2.136;2023-07-20T01:39:00;5.47;;;1.83;;
61085;SDS011;46967;48.876;2.136;2023-07-20T01:41:25;6.15;;;1.40;;
61085;SDS011;46967;48.876;2.136;2023-07-20T01:43:51;4.38;;;1.58;;
61085;SDS011;46967;48.876;2.136;2023-07-20T01:46:16;5.03;;;1.70;;
61085;SDS011;46967;48.876;2.136;2023-07-20T01:48:42;4.60;;;1.30;;
61085;SDS011;46967;48.876;2.136;2023-07-20T01:51:07;4.07;;;1.45;;
61085;SDS011;46967;48.876;2.136;2023-07-20T01:53:32;4.25;;;1.40;;
61085;SDS011;46967;48.876;2.136;2023-07-20T01:55:58;4.22;;;1.75;;
61085;SDS011;46967;48.876;2.136;2023-07-20T01:58:23;4.22;;;1.52;;
61085;SDS011;46967;48.876;2.136;2023-07-20T02:00:49;3.53;;;1.45;;
61085;SDS011;46967;48.876;2.136;2023-07-20T02:03:15;3.63;;;1.70;;
61085;SDS011;46967;48.876;2.136;2023-07-20T02:05:43;5.55;;;1.50;;
61085;SDS011;46967;48.876;2.136;2023-07-20T02:08:09;3.00;;;1.52;;
61085;SDS011;46967;48.876;2.136;2023-07-20T02:10:34;2.72;;;1.38;;
61085;SDS011;46967;48.876;2.136;2023-07-20T02:13:00;2.67;;;1.40;;
61085;SDS011;46967;48.876;2.136;2023-07-20T02:15:26;4.82;;;1.65;;
61085;SDS011;46967;48.876;2.136;2023-07-20T02:17:52;4.35;;;1.67;;
61085;SDS011;46967;48.876;2.136;2023-07-20T02:20:17;4.30;;;1.80;;
61085;SDS011;46967;48.876;2.136;2023-07-20T02:22:44;4.63;;;1.50;;
61085;SDS011;46967;48.876;2.136;2023-07-20T02:25:10;5.50;;;1.80;;
61085;SDS011;46967;48.876;2.136;2023-07-20T02:27:36;5.35;;;1.80;;
61085;SDS011;46967;48.876;2.136;2023-07-20T02:30:02;4.35;;;1.80;;
61085;SDS011;46967;48.876;2.136;2023-07-20T02:32:28;4.85;;;1.65;;
61085;SDS011;46967;48.876;2.136;2023-07-20T02:34:53;3.65;;;1.58;;
61085;SDS011;46967;48.876;2.136;2023-07-20T02:37:19;4.75;;;1.63;;
61085;SDS011;46967;48.876;2.136;2023-07-20T02:39:44;6.85;;;1.63;;
61085;SDS011;46967;48.876;2.136;2023-07-20T02:42:10;4.82;;;1.40;;
61085;SDS011;46967;48.876;2.136;2023-07-20T02:44:35;2.50;;;1.52;;
61085;SDS011;46967;48.876;2.136;2023-07-20T02:47:00;4.68;;;2.00;;
61085;SDS011;46967;48.876;2.136;2023-07-20T02:49:26;3.95;;;1.67;;
61085;SDS011;46967;48.876;2.136;2023-07-20T02:51:52;4.65;;;1.60;;
61085;SDS011;46967;48.876;2.136;2023-07-20T02:54:17;4.22;;;1.77;;
61085;SDS011;46967;48.876;2.136;2023-07-20T02:56:42;6.63;;;1.80;;
61085;SDS011;46967;48.876;2.136;2023-07-20T02:59:08;9.60;;;1.80;;
61085;SDS011;46967;48.876;2.136;2023-07-20T03:01:33;7.93;;;1.90;;
61085;SDS011;46967;48.876;2.136;2023-07-20T03:03:59;4.43;;;1.70;;
61085;SDS011;46967;48.876;2.136;2023-07-20T03:06:24;6.72;;;2.10;;
61085;SDS011;46967;48.876;2.136;2023-07-20T03:08:49;6.43;;;2.08;;
61085;SDS011;46967;48.876;2.136;2023-07-20T03:11:17;10.50;;;2.40;;
61085;SDS011;46967;48.876;2.136;2023-07-20T03:13:43;4.93;;;1.60;;
61085;SDS011;46967;48.876;2.136;2023-07-20T03:16:13;5.00;;;1.80;;
61085;SDS011;46967;48.876;2.136;2023-07-20T03:18:42;4.57;;;1.95;;
61085;SDS011;46967;48.876;2.136;2023-07-20T03:21:08;4.22;;;1.77;;
61085;SDS011;46967;48.876;2.136;2023-07-20T03:23:36;6.63;;;1.70;;
61085;SDS011;46967;48.876;2.136;2023-07-20T03:26:01;3.55;;;1.70;;
61085;SDS011;46967;48.876;2.136;2023-07-20T03:28:27;4.30;;;1.60;;
61085;SDS011;46967;48.876;2.136;2023-07-20T03:30:53;6.75;;;2.58;;
61085;SDS011;46967;48.876;2.136;2023-07-20T03:33:19;3.97;;;1.92;;
61085;SDS011;46967;48.876;2.136;2023-07-20T03:35:45;5.75;;;2.00;;
61085;SDS011;46967;48.876;2.136;2023-07-20T03:38:10;7.90;;;2.28;;
61085;SDS011;46967;48.876;2.136;2023-07-20T03:40:35;4.57;;;1.88;;
61085;SDS011;46967;48.876;2.136;2023-07-20T03:43:01;6.00;;;2.05;;
61085;SDS011;46967;48.876;2.136;2023-07-20T03:45:27;7.85;;;2.40;;
61085;SDS011;46967;48.876;2.136;2023-07-20T03:47:52;9.38;;;2.30;;
61085;SDS011;46967;48.876;2.136;2023-07-20T03:50:17;3.67;;;1.88;;
61085;SDS011;46967;48.876;2.136;2023-07-20T03:52:43;6.32;;;2.08;;
61085;SDS011;46967;48.876;2.136;2023-07-20T03:55:08;5.20;;;2.08;;
61085;SDS011;46967;48.876;2.136;2023-07-20T03:57:33;5.05;;;2.20;;
61085;SDS011;46967;48.876;2.136;2023-07-20T03:59:59;4.93;;;1.73;;
61085;SDS011;46967;48.876;2.136;2023-07-20T04:02:24;5.22;;;1.85;;
61085;SDS011;46967;48.876;2.136;2023-07-20T04:04:50;7.60;;;2.00;;
61085;SDS011;46967;48.876;2.136;2023-07-20T04:07:16;4.93;;;2.00;;
61085;SDS011;46967;48.876;2.136;2023-07-20T04:09:41;5.10;;;1.80;;
61085;SDS011;46967;48.876;2.136;2023-07-20T04:12:06;8.63;;;2.22;;
61085;SDS011;46967;48.876;2.136;2023-07-20T04:14:32;7.00;;;1.90;;
61085;SDS011;46967;48.876;2.136;2023-07-20T04:16:57;5.78;;;2.05;;
61085;SDS011;46967;48.876;2.136;2023-07-20T04:19:25;5.25;;;1.70;;
61085;SDS011;46967;48.876;2.136;2023-07-20T04:21:50;6.47;;;1.95;;
61085;SDS011;46967;48.876;2.136;2023-07-20T04:24:16;4.25;;;2.03;;
61085;SDS011;46967;48.876;2.136;2023-07-20T04:26:41;4.65;;;1.83;;
61085;SDS011;46967;48.876;2.136;2023-07-20T04:29:07;6.72;;;2.10;;
61085;SDS011;46967;48.876;2.136;2023-07-20T04:31:32;3.85;;;1.80;;
61085;SDS011;46967;48.876;2.136;2023-07-20T04:33:58;5.40;;;1.92;;
61085;SDS011;46967;48.876;2.136;2023-07-20T04:36:23;6.50;;;2.10;;
61085;SDS011;46967;48.876;2.136;2023-07-20T04:38:49;4.85;;;2.50;;
61085;SDS011;46967;48.876;2.136;2023-07-20T04:41:14;4.20;;;1.80;;
61085;SDS011;46967;48.876;2.136;2023-07-20T04:43:43;6.53;;;1.83;;
61085;SDS011;46967;48.876;2.136;2023-07-20T04:46:09;5.95;;;1.90;;
61085;SDS011;46967;48.876;2.136;2023-07-20T04:48:36;5.13;;;2.03;;
61085;SDS011;46967;48.876;2.136;2023-07-20T04:51:01;3.58;;;1.88;;
61085;SDS011;46967;48.876;2.136;2023-07-20T04:53:27;4.85;;;2.10;;
61085;SDS011;46967;48.876;2.136;2023-07-20T04:55:52;5.78;;;1.85;;
61085;SDS011;46967;48.876;2.136;2023-07-20T04:58:19;5.43;;;1.90;;
61085;SDS011;46967;48.876;2.136;2023-07-20T05:00:47;5.22;;;1.73;;
61085;SDS011;46967;48.876;2.136;2023-07-20T05:03:13;6.22;;;2.28;;
61085;SDS011;46967;48.876;2.136;2023-07-20T05:05:38;3.88;;;1.70;;
61085;SDS011;46967;48.876;2.136;2023-07-20T05:08:04;6.03;;;1.80;;
61085;SDS011;46967;48.876;2.136;2023-07-20T05:10:29;6.65;;;2.03;;
61085;SDS011;46967;48.876;2.136;2023-07-20T05:12:55;3.88;;;1.83;;
61085;SDS011;46967;48.876;2.136;2023-07-20T05:15:20;5.95;;;1.60;;
61085;SDS011;46967;48.876;2.136;2023-07-20T05:17:45;3.90;;;1.55;;
61085;SDS011;46967;48.876;2.136;2023-07-20T05:20:11;6.47;;;1.92;;
61085;SDS011;46967;48.876;2.136;2023-07-20T05:22:37;5.22;;;1.90;;
61085;SDS011;46967;48.876;2.136;2023-07-20T05:25:09;6.88;;;1.77;;
61085;SDS011;46967;48.876;2.136;2023-07-20T05:27:39;5.75;;;1.90;;
61085;SDS011;46967;48.876;2.136;2023-07-20T05:30:05;5.93;;;1.90;;
61085;SDS011;46967;48.876;2.136;2023-07-20T05:32:32;3.85;;;1.65;;
61085;SDS011;46967;48.876;2.136;2023-07-20T05:34:57;3.50;;;1.52;;
61085;SDS011;46967;48.876;2.136;2023-07-20T05:37:23;5.28;;;1.80;;
61085;SDS011;46967;48.876;2.136;2023-07-20T05:39:48;9.15;;;2.15;;
61085;SDS011;46967;48.876;2.136;2023-07-20T05:42:14;3.28;;;1.35;;
61085;SDS011;46967;48.876;2.136;2023-07-20T05:44:39;5.88;;;1.77;;
61085;SDS011;46967;48.876;2.136;2023-07-20T05:47:05;6.05;;;1.75;;
61085;SDS011;46967;48.876;2.136;2023-07-20T05:49:31;7.18;;;1.98;;
61085;SDS011;46967;48.876;2.136;2023-07-20T05:51:56;4.78;;;1.73;;
61085;SDS011;46967;48.876;2.136;2023-07-20T05:54:23;4.85;;;2.00;;
61085;SDS011;46967;48.876;2.136;2023-07-20T05:56:52;6.97;;;2.17;;
61085;SDS011;46967;48.876;2.136;2023-07-20T05:59:18;3.90;;;1.50;;
61085;SDS011;46967;48.876;2.136;2023-07-20T06:01:44;5.40;;;1.63;;
61085;SDS011;46967;48.876;2.136;2023-07-20T06:04:10;4.25;;;1.48;;
61085;SDS011;46967;48.876;2.136;2023-07-20T06:06:35;4.50;;;1.45;;
61085;SDS011;46967;48.876;2.136;2023-07-20T06:09:01;3.20;;;1.48;;
61085;SDS011;46967;48.876;2.136;2023-07-20T06:11:29;8.43;;;2.22;;
61085;SDS011;46967;48.876;2.136;2023-07-20T06:13:55;3.97;;;1.70;;
61085;SDS011;46967;48.876;2.136;2023-07-20T06:16:21;6.35;;;1.90;;
61085;SDS011;46967;48.876;2.136;2023-07-20T06:18:47;4.97;;;1.90;;
61085;SDS011;46967;48.876;2.136;2023-07-20T06:21:12;5.25;;;2.00;;
61085;SDS011;46967;48.876;2.136;2023-07-20T06:23:38;5.30;;;1.70;;
61085;SDS011;46967;48.876;2.136;2023-07-20T06:26:05;5.22;;;1.70;;
61085;SDS011;46967;48.876;2.136;2023-07-20T06:28:31;3.15;;;1.60;;
61085;SDS011;46967;48.876;2.136;2023-07-20T06:31:00;6.22;;;1.65;;
61085;SDS011;46967;48.876;2.136;2023-07-20T06:33:26;4.43;;;1.90;;
61085;SDS011;46967;48.876;2.136;2023-07-20T06:35:52;5.13;;;1.98;;
61085;SDS011;46967;48.876;2.136;2023-07-20T06:38:18;5.78;;;1.95;;
61085;SDS011;46967;48.876;2.136;2023-07-20T06:40:45;6.20;;;2.00;;
61085;SDS011;46967;48.876;2.136;2023-07-20T06:43:11;3.25;;;1.52;;
61085;SDS011;46967;48.876;2.136;2023-07-20T06:45:36;7.95;;;3.00;;
61085;SDS011;46967;48.876;2.136;2023-07-20T06:48:02;8.63;;;1.83;;
61085;SDS011;46967;48.876;2.136;2023-07-20T06:50:28;5.13;;;1.95;;
61085;SDS011;46967;48.876;2.136;2023-07-20T06:52:53;4.93;;;2.10;;
61085;SDS011;46967;48.876;2.136;2023-07-20T06:55:19;3.50;;;1.80;;
61085;SDS011;46967;48.876;2.136;2023-07-20T06:57:44;5.43;;;2.05;;
61085;SDS011;46967;48.876;2.136;2023-07-20T07:00:09;8.30;;;1.73;;
61085;SDS011;46967;48.876;2.136;2023-07-20T07:02:35;7.20;;;1.98;;
61085;SDS011;46967;48.876;2.136;2023-07-20T07:05:00;8.02;;;2.20;;
61085;SDS011;46967;48.876;2.136;2023-07-20T07:07:26;4.38;;;1.80;;
61085;SDS011;46967;48.876;2.136;2023-07-20T07:09:52;5.85;;;1.95;;
61085;SDS011;46967;48.876;2.136;2023-07-20T07:12:17;8.25;;;1.92;;
61085;SDS011;46967;48.876;2.136;2023-07-20T07:14:42;8.00;;;2.63;;
61085;SDS011;46967;48.876;2.136;2023-07-20T07:17:08;9.75;;;2.47;;
61085;SDS011;46967;48.876;2.136;2023-07-20T07:19:33;5.18;;;2.10;;
61085;SDS011;46967;48.876;2.136;2023-07-20T07:21:59;4.72;;;2.30;;
61085;SDS011;46967;48.876;2.136;2023-07-20T07:24:24;7.35;;;2.30;;
61085;SDS011;46967;48.876;2.136;2023-07-20T07:26:49;4.60;;;2.20;;
61085;SDS011;46967;48.876;2.136;2023-07-20T07:29:15;7.57;;;2.00;;
61085;SDS011;46967;48.876;2.136;2023-07-20T07:31:40;6.68;;;2.42;;
61085;SDS011;46967;48.876;2.136;2023-07-20T07:34:05;6.28;;;1.83;;
61085;SDS011;46967;48.876;2.136;2023-07-20T07:36:31;8.48;;;2.25;;
61085;SDS011;46967;48.876;2.136;2023-07-20T07:38:57;6.30;;;2.42;;
61085;SDS011;46967;48.876;2.136;2023-07-20T07:41:23;9.68;;;2.70;;
61085;SDS011;46967;48.876;2.136;2023-07-20T07:43:48;7.85;;;2.30;;
61085;SDS011;46967;48.876;2.136;2023-07-20T07:46:13;3.95;;;1.95;;
61085;SDS011;46967;48.876;2.136;2023-07-20T07:48:39;6.78;;;2.40;;
61085;SDS011;46967;48.876;2.136;2023-07-20T07:51:04;7.40;;;2.22;;
61085;SDS011;46967;48.876;2.136;2023-07-20T07:53:30;6.03;;;2.17;;
61085;SDS011;46967;48.876;2.136;2023-07-20T07:55:57;9.75;;;2.35;;
61085;SDS011;46967;48.876;2.136;2023-07-20T07:58:22;4.25;;;2.10;;
61085;SDS011;46967;48.876;2.136;2023-07-20T08:00:48;5.78;;;2.30;;
61085;SDS011;46967;48.876;2.136;2023-07-20T08:03:13;7.07;;;2.60;;
61085;SDS011;46967;48.876;2.136;2023-07-20T08:05:39;9.02;;;2.45;;
61085;SDS011;46967;48.876;2.136;2023-07-20T08:08:04;10.75;;;2.60;;
61085;SDS011;46967;48.876;2.136;2023-07-20T08:10:30;6.65;;;2.92;;
61085;SDS011;46967;48.876;2.136;2023-07-20T08:12:56;4.75;;;2.30;;
61085;SDS011;46967;48.876;2.136;2023-07-20T08:15:21;12.73;;;2.70;;
61085;SDS011;46967;48.876;2.136;2023-07-20T08:17:47;8.30;;;2.85;;
61085;SDS011;46967;48.876;2.136;2023-07-20T08:20:13;8.00;;;2.30;;
61085;SDS011;46967;48.876;2.136;2023-07-20T08:22:41;7.72;;;2.10;;
61085;SDS011;46967;48.876;2.136;2023-07-20T08:25:07;5.70;;;2.10;;
61085;SDS011;46967;48.876;2.136;2023-07-20T08:27:33;5.20;;;2.38;;
61085;SDS011;46967;48.876;2.136;2023-07-20T08:29:58;5.78;;;2.20;;
61085;SDS011;46967;48.876;2.136;2023-07-20T08:32:24;6.13;;;2.40;;
61085;SDS011;46967;48.876;2.136;2023-07-20T08:34:50;3.75;;;2.05;;
61085;SDS011;46967;48.876;2.136;2023-07-20T08:37:16;5.70;;;2.30;;
61085;SDS011;46967;48.876;2.136;2023-07-20T08:39:41;5.25;;;2.20;;
61085;SDS011;46967;48.876;2.136;2023-07-20T08:42:06;4.93;;;1.98;;
61085;SDS011;46967;48.876;2.136;2023-07-20T08:44:33;6.40;;;2.20;;
61085;SDS011;46967;48.876;2.136;2023-07-20T08:46:59;6.60;;;1.90;;
61085;SDS011;46967;48.876;2.136;2023-07-20T08:49:27;7.53;;;2.28;;
61085;SDS011;46967;48.876;2.136;2023-07-20T08:51:53;6.32;;;2.15;;
61085;SDS011;46967;48.876;2.136;2023-07-20T08:54:18;2.60;;;1.50;;
61085;SDS011;46967;48.876;2.136;2023-07-20T08:56:44;3.20;;;1.50;;
61085;SDS011;46967;48.876;2.136;2023-07-20T08:59:12;2.42;;;1.30;;
61085;SDS011;46967;48.876;2.136;2023-07-20T09:01:41;2.75;;;1.30;;
61085;SDS011;46967;48.876;2.136;2023-07-20T09:04:07;3.30;;;1.58;;
61085;SDS011;46967;48.876;2.136;2023-07-20T09:06:32;6.15;;;1.60;;
61085;SDS011;46967;48.876;2.136;2023-07-20T09:08:59;3.45;;;1.27;;
61085;SDS011;46967;48.876;2.136;2023-07-20T09:11:25;2.80;;;0.98;;
61085;SDS011;46967;48.876;2.136;2023-07-20T09:14:06;1.67;;;0.80;;
61085;SDS011;46967;48.876;2.136;2023-07-20T09:16:32;2.90;;;1.10;;
61085;SDS011;46967;48.876;2.136;2023-07-20T09:19:11;3.22;;;1.38;;
61085;SDS011;46967;48.876;2.136;2023-07-20T09:21:37;2.33;;;1.08;;
61085;SDS011;46967;48.876;2.136;2023-07-20T09:24:03;3.08;;;0.80;;
61085;SDS011;46967;48.876;2.136;2023-07-20T09:26:28;1.50;;;0.70;;
61085;SDS011;46967;48.876;2.136;2023-07-20T09:28:53;3.95;;;1.08;;
61085;SDS011;46967;48.876;2.136;2023-07-20T09:31:22;3.20;;;1.20;;
61085;SDS011;46967;48.876;2.136;2023-07-20T09:33:48;5.93;;;1.10;;
61085;SDS011;46967;48.876;2.136;2023-07-20T09:36:16;5.30;;;1.00;;
61085;SDS011;46967;48.876;2.136;2023-07-20T09:38:42;3.00;;;1.08;;
61085;SDS011;46967;48.876;2.136;2023-07-20T09:41:08;1.58;;;0.68;;
61085;SDS011;46967;48.876;2.136;2023-07-20T09:43:38;0.95;;;0.65;;
61085;SDS011;46967;48.876;2.136;2023-07-20T09:46:04;1.90;;;0.60;;
61085;SDS011;46967;48.876;2.136;2023-07-20T09:48:30;1.63;;;0.68;;
61085;SDS011;46967;48.876;2.136;2023-07-20T09:50:55;1.88;;;1.00;;
61085;SDS011;46967;48.876;2.136;2023-07-20T09:53:21;1.27;;;0.90;;
61085;SDS011;46967;48.876;2.136;2023-07-20T09:55:49;0.70;;;0.55;;
61085;SDS011;46967;48.876;2.136;2023-07-20T09:58:15;1.50;;;0.80;;
61085;SDS011;46967;48.876;2.136;2023-07-20T10:00:41;3.50;;;0.80;;
61085;SDS011;46967;48.876;2.136;2023-07-20T10:03:16;1.55;;;0.85;;
61085;SDS011;46967;48.876;2.136;2023-07-20T10:05:45;2.08;;;0.50;;
61085;SDS011;46967;48.876;2.136;2023-07-20T10:08:16;1.55;;;0.95;;
61085;SDS011;46967;48.876;2.136;2023-07-20T10:10:43;2.08;;;0.82;;
61085;SDS011;46967;48.876;2.136;2023-07-20T10:13:12;0.63;;;0.60;;
61085;SDS011;46967;48.876;2.136;2023-07-20T10:15:50;0.50;;;0.50;;
61085;SDS011;46967;48.876;2.136;2023-07-20T10:18:18;1.65;;;0.50;;
61085;SDS011;46967;48.876;2.136;2023-07-20T10:20:51;1.15;;;0.52;;
61085;SDS011;46967;48.876;2.136;2023-07-20T10:23:19;0.83;;;0.50;;
61085;SDS011;46967;48.876;2.136;2023-07-20T10:25:44;6.00;;;0.80;;
61085;SDS011;46967;48.876;2.136;2023-07-20T10:28:11;1.15;;;0.77;;
61085;SDS011;46967;48.876;2.136;2023-07-20T10:30:38;1.40;;;0.90;;
61085;SDS011;46967;48.876;2.136;2023-07-20T10:33:04;1.38;;;0.75;;
61085;SDS011;46967;48.876;2.136;2023-07-20T10:35:31;0.70;;;0.55;;
61085;SDS011;46967;48.876;2.136;2023-07-20T10:38:15;1.38;;;0.80;;
61085;SDS011;46967;48.876;2.136;2023-07-20T10:40:40;1.38;;;0.73;;
61085;SDS011;46967;48.876;2.136;2023-07-20T10:43:06;0.77;;;0.77;;
61085;SDS011;46967;48.876;2.136;2023-07-20T10:45:42;2.15;;;0.68;;
61085;SDS011;46967;48.876;2.136;2023-07-20T10:48:17;4.32;;;2.03;;
61085;SDS011;46967;48.876;2.136;2023-07-20T10:50:44;2.30;;;0.60;;
61085;SDS011;46967;48.876;2.136;2023-07-20T10:53:15;3.42;;;1.00;;
61085;SDS011;46967;48.876;2.136;2023-07-20T10:55:42;1.55;;;0.80;;
61085;SDS011;46967;48.876;2.136;2023-07-20T10:58:14;1.13;;;0.60;;
61085;SDS011;46967;48.876;2.136;2023-07-20T11:00:56;1.80;;;0.80;;
61085;SDS011;46967;48.876;2.136;2023-07-20T11:03:27;1.88;;;0.82;;
61085;SDS011;46967;48.876;2.136;2023-07-20T11:05:54;0.98;;;0.60;;
61085;SDS011;46967;48.876;2.136;2023-07-20T11:08:37;3.25;;;0.70;;
61085;SDS011;46967;48.876;2.136;2023-07-20T11:11:22;1.77;;;0.93;;
61085;SDS011;46967;48.876;2.136;2023-07-20T11:13:53;1.58;;;0.70;;
61085;SDS011;46967;48.876;2.136;2023-07-20T11:16:36;1.15;;;0.70;;
61085;SDS011;46967;48.876;2.136;2023-07-20T11:19:05;2.73;;;1.00;;
61085;SDS011;46967;48.876;2.136;2023-07-20T11:21:35;1.90;;;0.90;;
61085;SDS011;46967;48.876;2.136;2023-07-20T11:24:03;3.08;;;0.90;;
61085;SDS011;46967;48.876;2.136;2023-07-20T11:26:30;0.90;;;0.47;;
61085;SDS011;46967;48.876;2.136;2023-07-20T11:28:55;1.30;;;0.60;;
61085;SDS011;46967;48.876;2.136;2023-07-20T11:31:20;1.95;;;0.85;;
61085;SDS011;46967;48.876;2.136;2023-07-20T11:33:46;3.33;;;1.00;;
61085;SDS011;46967;48.876;2.136;2023-07-20T11:36:11;1.13;;;0.85;;
61085;SDS011;46967;48.876;2.136;2023-07-20T11:38:38;0.68;;;0.60;;
61085;SDS011;46967;48.876;2.136;2023-07-20T11:41:07;1.35;;;0.77;;
61085;SDS011;46967;48.876;2.136;2023-07-20T11:43:32;1.77;;;0.77;;
61085;SDS011;46967;48.876;2.136;2023-07-20T11:45:57;1.13;;;0.80;;
61085;SDS011;46967;48.876;2.136;2023-07-20T11:48:23;0.50;;;0.50;;
61085;SDS011;46967;48.876;2.136;2023-07-20T11:50:48;1.13;;;0.70;;
61085;SDS011;46967;48.876;2.136;2023-07-20T11:53:14;0.75;;;0.63;;
61085;SDS011;46967;48.876;2.136;2023-07-20T11:55:40;1.73;;;0.70;;
61085;SDS011;46967;48.876;2.136;2023-07-20T11:58:07;1.13;;;0.70;;
61085;SDS011;46967;48.876;2.136;2023-07-20T12:00:33;1.40;;;0.70;;
61085;SDS011;46967;48.876;2.136;2023-07-20T12:02:59;1.70;;;0.73;;
61085;SDS011;46967;48.876;2.136;2023-07-20T12:05:25;2.58;;;0.85;;
61085;SDS011;46967;48.876;2.136;2023-07-20T12:07:51;0.93;;;0.70;;
61085;SDS011;46967;48.876;2.136;2023-07-20T12:10:22;1.33;;;0.73;;
61085;SDS011;46967;48.876;2.136;2023-07-20T12:12:53;3.17;;;0.80;;
61085;SDS011;46967;48.876;2.136;2023-07-20T12:15:19;1.88;;;0.80;;
61085;SDS011;46967;48.876;2.136;2023-07-20T12:17:51;0.93;;;0.70;;
61085;SDS011;46967;48.876;2.136;2023-07-20T12:20:58;2.33;;;1.13;;
61085;SDS011;46967;48.876;2.136;2023-07-20T12:23:10;2.90;;;0.80;;
61085;SDS011;46967;48.876;2.136;2023-07-20T12:25:41;2.25;;;0.90;;
61085;SDS011;46967;48.876;2.136;2023-07-20T12:28:12;1.58;;;0.70;;
61085;SDS011;46967;48.876;2.136;2023-07-20T12:30:39;1.77;;;0.70;;
61085;SDS011;46967;48.876;2.136;2023-07-20T12:33:06;1.35;;;0.63;;
61085;SDS011;46967;48.876;2.136;2023-07-20T12:35:32;1.67;;;0.80;;
61085;SDS011;46967;48.876;2.136;2023-07-20T12:37:57;1.70;;;0.80;;
61085;SDS011;46967;48.876;2.136;2023-07-20T12:40:23;4.45;;;0.73;;
61085;SDS011;46967;48.876;2.136;2023-07-20T12:42:48;1.10;;;0.68;;
61085;SDS011;46967;48.876;2.136;2023-07-20T12:45:14;1.42;;;0.77;;
61085;SDS011;46967;48.876;2.136;2023-07-20T12:47:40;0.95;;;0.68;;
61085;SDS011;46967;48.876;2.136;2023-07-20T12:50:08;1.90;;;0.80;;
61085;SDS011;46967;48.876;2.136;2023-07-20T12:52:37;0.98;;;0.70;;
61085;SDS011;46967;48.876;2.136;2023-07-20T12:55:07;2.17;;;0.90;;
61085;SDS011;46967;48.876;2.136;2023-07-20T12:57:37;0.85;;;0.50;;
61085;SDS011;46967;48.876;2.136;2023-07-20T13:00:03;1.42;;;0.70;;
61085;SDS011;46967;48.876;2.136;2023-07-20T13:02:30;1.10;;;0.73;;
61085;SDS011;46967;48.876;2.136;2023-07-20T13:04:57;1.38;;;0.80;;
61085;SDS011;46967;48.876;2.136;2023-07-20T13:07:32;1.52;;;0.60;;
61085;SDS011;46967;48.876;2.136;2023-07-20T13:09:59;7.85;;;0.75;;
61085;SDS011;46967;48.876;2.136;2023-07-20T13:12:25;2.28;;;0.85;;
61085;SDS011;46967;48.876;2.136;2023-07-20T13:14:52;1.60;;;0.93;;
61085;SDS011;46967;48.876;2.136;2023-07-20T13:17:17;3.25;;;0.77;;
61085;SDS011;46967;48.876;2.136;2023-07-20T13:19:43;1.92;;;0.52;;
61085;SDS011;46967;48.876;2.136;2023-07-20T13:22:08;3.85;;;0.85;;
61085;SDS011;46967;48.876;2.136;2023-07-20T13:24:33;1.80;;;0.80;;
61085;SDS011;46967;48.876;2.136;2023-07-20T13:26:59;3.85;;;0.70;;
61085;SDS011;46967;48.876;2.136;2023-07-20T13:29:24;2.80;;;0.80;;
61085;SDS011;46967;48.876;2.136;2023-07-20T13:31:50;2.60;;;0.75;;
61085;SDS011;46967;48.876;2.136;2023-07-20T13:34:15;1.60;;;1.00;;
61085;SDS011;46967;48.876;2.136;2023-07-20T13:36:40;3.20;;;0.90;;
61085;SDS011;46967;48.876;2.136;2023-07-20T13:39:06;1.40;;;0.70;;
61085;SDS011;46967;48.876;2.136;2023-07-20T13:41:32;2.03;;;0.73;;
61085;SDS011;46967;48.876;2.136;2023-07-20T13:43:58;4.65;;;0.85;;
61085;SDS011;46967;48.876;2.136;2023-07-20T13:46:23;3.65;;;1.10;;
61085;SDS011;46967;48.876;2.136;2023-07-20T13:48:48;2.08;;;1.00;;
61085;SDS011;46967;48.876;2.136;2023-07-20T13:51:14;2.78;;;1.00;;
61085;SDS011;46967;48.876;2.136;2023-07-20T13:53:39;1.15;;;0.70;;
61085;SDS011;46967;48.876;2.136;2023-07-20T13:56:05;4.43;;;1.08;;
61085;SDS011;46967;48.876;2.136;2023-07-20T13:58:31;3.75;;;1.00;;
61085;SDS011;46967;48.876;2.136;2023-07-20T14:00:56;2.00;;;0.93;;
61085;SDS011;46967;48.876;2.136;2023-07-20T14:03:21;4.13;;;1.08;;
61085;SDS011;46967;48.876;2.136;2023-07-20T14:05:46;1.40;;;0.73;;
61085;SDS011;46967;48.876;2.136;2023-07-20T14:08:13;1.92;;;0.90;;
61085;SDS011;46967;48.876;2.136;2023-07-20T14:10:39;3.05;;;1.15;;
61085;SDS011;46967;48.876;2.136;2023-07-20T14:13:04;1.30;;;0.75;;
61085;SDS011;46967;48.876;2.136;2023-07-20T14:15:29;1.80;;;0.80;;
61085;SDS011;46967;48.876;2.136;2023-07-20T14:17:55;1.38;;;0.80;;
61085;SDS011;46967;48.876;2.136;2023-07-20T14:20:20;1.98;;;0.85;;
61085;SDS011;46967;48.876;2.136;2023-07-20T14:22:45;2.58;;;1.05;;
61085;SDS011;46967;48.876;2.136;2023-07-20T14:25:12;1.80;;;0.70;;
61085;SDS011;46967;48.876;2.136;2023-07-20T14:27:38;1.48;;;0.90;;
61085;SDS011;46967;48.876;2.136;2023-07-20T14:30:03;1.42;;;0.95;;
61085;SDS011;46967;48.876;2.136;2023-07-20T14:32:29;3.75;;;0.70;;
61085;SDS011;46967;48.876;2.136;2023-07-20T14:34:56;3.15;;;0.93;;
61085;SDS011;46967;48.876;2.136;2023-07-20T14:37:21;1.65;;;0.80;;
61085;SDS011;46967;48.876;2.136;2023-07-20T14:39:46;0.80;;;0.60;;
61085;SDS011;46967;48.876;2.136;2023-07-20T14:42:13;2.22;;;0.82;;
61085;SDS011;46967;48.876;2.136;2023-07-20T14:44:38;1.10;;;0.70;;
61085;SDS011;46967;48.876;2.136;2023-07-20T14:47:04;1.10;;;0.70;;
61085;SDS011;46967;48.876;2.136;2023-07-20T14:49:29;1.40;;;0.77;;
61085;SDS011;46967;48.876;2.136;2023-07-20T14:51:54;1.60;;;0.80;;
61085;SDS011;46967;48.876;2.136;2023-07-20T14:54:20;1.48;;;0.80;;
61085;SDS011;46967;48.876;2.136;2023-07-20T14:56:49;3.90;;;0.90;;